< < Back
Terminal Aerodrome Forecast


Current Version              Previous Versions:   1  2  3  4  5  6  7  8  9  

Terminal Aerodrome Forecast

935
FTUS42 KTAE 240000 AAA
TAFVLD
TAF AMD
KVLD 240001Z 2400/2424 00000KT 3SM RA BR SCT015 BKN040 OVC050
      TEMPO 2400/2401 VRB15G25KT 1SM +TSRA BKN007 OVC030CB
     FM240200 18010KT 6SM BR OVC020
     FM240800 19010KT 5SM BR OVC004
     FM241600 23010G15KT P6SM BKN020
     FM241800 26010KT P6SM BKN030 OVC060=

Latest METAR

510
SAUS70 KWBC 240100 RRO
MTRVLD
METAR KVLD 240053Z AUTO 00000KT 10SM FEW055 FEW080 SCT110 18/18 A2986
RMK AO2 RAE49 TSB05E25 SLP119 P0014 T01830178 $


USA.gov is the U.S. government's official web portal to all federal, state and local government web resources and services.